Terminal Aerodrome Forecast
Issued by NWS

Home | Current Version | Previous Version | Text Only | Print | Product List | Glossary On
Versions: 1 2 3 4 5 6 7 8 9 10 11 12 13 14 15 16 17 18 19 20 21 22 23 24 25 26 27 28
448
FTUS44 KMOB 291120
TAFBFM
TAF
KBFM 291120Z 2912/3012 VRB04KT P6SM VCTS FEW045CB BKN090
     FM291300 26011G18KT 5SM -RA BR BKN030
      TEMPO 2913/2917 3SM TSRA BKN025CB
     FM291700 27011G25KT P6SM SCT050 BKN100
     FM300000 32006KT P6SM SCT040 BKN150
     FM300600 24005KT P6SM SKC=

USA.gov is the U.S. government's official web portal to all federal, state and local government web resources and services.